Aérodrome :
LOGIN :

S'inscrire | Disclaimer

   EN    FR    IT 

 










Légende :    VFR   VFR Marginal   IFR   IFR Intensif   IFR Très Intensif
Visi : 
Plafond : 
>= 8 km
>= 3000ft
5 à 8 km
1000 à 3000 ft
1500m à 5 km
500 à 1000 ft
800 à 1500m
200 à 500 ft
< 800m
< 200 ft
Symboles :   Orages  Brouillard  Fortes neiges  Fortes précipitations  Vent > 20 kt
SIGMETs :   Divers  Orages  Givrage  Turbulence  Onde Orograph.  Cendres Volcan.






- Altitude de l'aérodrome : 55 ft
- Code IATA : PYR


LGAD - Andravida

DERNIER METAR :
  • 282220Z 00000KT 9999 FEW025 SCT080 17/16 Q1015

METARs EXPIRÉS :
  • 282150Z 00000KT 9999 FEW025 SCT080 17/16 Q1015
  • 282120Z 00000KT 9999 FEW025 SCT080 17/16 Q1015
  • 282050Z 00000KT 9999 FEW025 SCT080 17/16 Q1015
  • 282020Z 00000KT 9999 FEW025 SCT080 18/16 Q1015
  • 281950Z 00000KT 9999 FEW025 SCT080 19/17 Q1015
  • 281920Z 00000KT 9999 FEW025 SCT080 19/17 Q1015
  • 281850Z 00000KT 9999 FEW025 SCT080 19/17 Q1015
  • 281820Z 28004KT 9999 FEW025 SCT080 20/17 Q1015
  • 281750Z 28005KT 9999 FEW025 SCT080 20/17 Q1014

TAF TAF LGAD
Valide du 28 à 21h jusqu'au 29 à 06h UTC


282000Z 2821/2906 30008KT 9999 FEW020
BECMG 2821/2823 VRB03KT
PROB30
TEMPO 2902/2904 4000 FEW012



MET'MAP, la Météo Aéronautique d'un coup d'oeil ! - Copyright ORBIFLY Décembre 2007 - Disclaimer

ORBIFLY MET'MAP TEAM :

Programmation & Développement : Alexandra Zaïnal
Sur une idée originale de : Baudouin d'Aumeries
Soutien technique & logistique : Manuel Goepfert
Assistance : Marc-Olivier Méhu




SOURCES & CREDITS :

   NOAA